Terminal Aerodrome Forecast
Issued by NWS

Home | Current Version | Previous Version | Text Only | Print | Product List | Glossary On
Versions: 1 2 3 4 5 6 7 8 9 10 11 12 13 14 15 16 17
000
FTUS42 KTBW 231700 RRA
TAFPIE
TAF
KPIE 231741Z 2318/2418 18015G25KT P6SM SCT025 BKN070
     FM232300 18011KT P6SM SCT025 BKN070
     FM240300 17008KT P6SM SCT015 BKN070
     FM240700 17006KT 4SM BR SCT005 BKN010=

USA.gov is the U.S. government's official web portal to all federal, state and local government web resources and services.